sensor_id;sensor_type;location;lat;lon;timestamp;P1;durP1;ratioP1;P2;durP2;ratioP2
12218;SDS011;6172;42.646;23.344;2022-08-19T00:01:30;6.05;;;5.45;;
12218;SDS011;6172;42.646;23.344;2022-08-19T00:04:01;5.90;;;5.30;;
12218;SDS011;6172;42.646;23.344;2022-08-19T00:06:30;5.47;;;5.03;;
12218;SDS011;6172;42.646;23.344;2022-08-19T00:08:57;7.57;;;5.20;;
12218;SDS011;6172;42.646;23.344;2022-08-19T00:11:26;7.25;;;5.53;;
12218;SDS011;6172;42.646;23.344;2022-08-19T00:13:53;7.95;;;6.07;;
12218;SDS011;6172;42.646;23.344;2022-08-19T00:16:21;7.18;;;5.60;;
12218;SDS011;6172;42.646;23.344;2022-08-19T00:18:49;6.15;;;5.55;;
12218;SDS011;6172;42.646;23.344;2022-08-19T00:21:18;6.15;;;5.55;;
12218;SDS011;6172;42.646;23.344;2022-08-19T00:23:45;6.68;;;5.65;;
12218;SDS011;6172;42.646;23.344;2022-08-19T00:26:12;6.05;;;5.50;;
12218;SDS011;6172;42.646;23.344;2022-08-19T00:28:39;6.63;;;5.15;;
12218;SDS011;6172;42.646;23.344;2022-08-19T00:31:07;9.73;;;5.38;;
12218;SDS011;6172;42.646;23.344;2022-08-19T00:33:34;7.75;;;5.57;;
12218;SDS011;6172;42.646;23.344;2022-08-19T00:36:04;5.53;;;4.80;;
12218;SDS011;6172;42.646;23.344;2022-08-19T00:38:35;7.28;;;4.78;;
12218;SDS011;6172;42.646;23.344;2022-08-19T00:41:08;8.75;;;5.15;;
12218;SDS011;6172;42.646;23.344;2022-08-19T00:43:36;5.85;;;5.25;;
12218;SDS011;6172;42.646;23.344;2022-08-19T00:46:03;5.55;;;5.05;;
12218;SDS011;6172;42.646;23.344;2022-08-19T00:48:31;6.63;;;5.30;;
12218;SDS011;6172;42.646;23.344;2022-08-19T00:50:59;6.03;;;5.40;;
12218;SDS011;6172;42.646;23.344;2022-08-19T00:53:28;5.85;;;5.07;;
12218;SDS011;6172;42.646;23.344;2022-08-19T00:56:00;7.65;;;5.85;;
12218;SDS011;6172;42.646;23.344;2022-08-19T00:58:32;6.18;;;5.57;;
12218;SDS011;6172;42.646;23.344;2022-08-19T01:01:02;7.57;;;5.72;;
12218;SDS011;6172;42.646;23.344;2022-08-19T01:03:29;6.05;;;5.20;;
12218;SDS011;6172;42.646;23.344;2022-08-19T01:05:56;6.68;;;5.35;;
12218;SDS011;6172;42.646;23.344;2022-08-19T01:08:25;8.05;;;5.70;;
12218;SDS011;6172;42.646;23.344;2022-08-19T01:10:52;8.50;;;6.03;;
12218;SDS011;6172;42.646;23.344;2022-08-19T01:13:23;5.88;;;5.25;;
12218;SDS011;6172;42.646;23.344;2022-08-19T01:15:54;6.65;;;5.28;;
12218;SDS011;6172;42.646;23.344;2022-08-19T01:18:24;9.30;;;5.90;;
12218;SDS011;6172;42.646;23.344;2022-08-19T01:20:53;8.35;;;5.80;;
12218;SDS011;6172;42.646;23.344;2022-08-19T01:23:24;7.70;;;5.85;;
12218;SDS011;6172;42.646;23.344;2022-08-19T01:26:09;7.70;;;5.97;;
12218;SDS011;6172;42.646;23.344;2022-08-19T01:28:38;8.15;;;5.53;;
12218;SDS011;6172;42.646;23.344;2022-08-19T01:31:06;8.13;;;5.40;;
12218;SDS011;6172;42.646;23.344;2022-08-19T01:33:36;5.60;;;5.10;;
12218;SDS011;6172;42.646;23.344;2022-08-19T01:36:05;6.00;;;5.30;;
12218;SDS011;6172;42.646;23.344;2022-08-19T01:38:35;6.68;;;5.93;;
12218;SDS011;6172;42.646;23.344;2022-08-19T01:41:04;6.15;;;5.47;;
12218;SDS011;6172;42.646;23.344;2022-08-19T01:43:32;6.45;;;5.38;;
12218;SDS011;6172;42.646;23.344;2022-08-19T01:45:59;5.85;;;5.35;;
12218;SDS011;6172;42.646;23.344;2022-08-19T01:48:32;6.32;;;5.72;;
12218;SDS011;6172;42.646;23.344;2022-08-19T01:50:59;6.40;;;5.32;;
12218;SDS011;6172;42.646;23.344;2022-08-19T01:53:26;5.95;;;5.45;;
12218;SDS011;6172;42.646;23.344;2022-08-19T01:55:55;6.05;;;5.45;;
12218;SDS011;6172;42.646;23.344;2022-08-19T01:58:24;6.25;;;5.65;;
12218;SDS011;6172;42.646;23.344;2022-08-19T02:00:55;5.88;;;5.03;;
12218;SDS011;6172;42.646;23.344;2022-08-19T02:03:23;5.93;;;5.35;;
12218;SDS011;6172;42.646;23.344;2022-08-19T02:05:53;6.70;;;6.10;;
12218;SDS011;6172;42.646;23.344;2022-08-19T02:08:21;6.07;;;5.60;;
12218;SDS011;6172;42.646;23.344;2022-08-19T02:10:48;6.00;;;5.40;;
12218;SDS011;6172;42.646;23.344;2022-08-19T02:13:17;10.90;;;6.00;;
12218;SDS011;6172;42.646;23.344;2022-08-19T02:15:45;8.40;;;5.78;;
12218;SDS011;6172;42.646;23.344;2022-08-19T02:18:12;6.95;;;5.63;;
12218;SDS011;6172;42.646;23.344;2022-08-19T02:20:41;7.43;;;5.65;;
12218;SDS011;6172;42.646;23.344;2022-08-19T02:23:09;10.20;;;5.47;;
12218;SDS011;6172;42.646;23.344;2022-08-19T02:25:38;7.30;;;6.00;;
12218;SDS011;6172;42.646;23.344;2022-08-19T02:28:05;9.23;;;6.63;;
12218;SDS011;6172;42.646;23.344;2022-08-19T02:30:33;7.70;;;6.25;;
12218;SDS011;6172;42.646;23.344;2022-08-19T02:33:00;7.65;;;6.00;;
12218;SDS011;6172;42.646;23.344;2022-08-19T02:35:27;7.20;;;6.00;;
12218;SDS011;6172;42.646;23.344;2022-08-19T02:37:54;10.32;;;6.22;;
12218;SDS011;6172;42.646;23.344;2022-08-19T02:40:38;12.32;;;6.40;;
12218;SDS011;6172;42.646;23.344;2022-08-19T02:43:07;11.98;;;7.03;;
12218;SDS011;6172;42.646;23.344;2022-08-19T02:45:38;8.98;;;6.07;;
12218;SDS011;6172;42.646;23.344;2022-08-19T02:48:05;6.97;;;6.35;;
12218;SDS011;6172;42.646;23.344;2022-08-19T02:50:36;6.97;;;6.38;;
12218;SDS011;6172;42.646;23.344;2022-08-19T02:53:04;9.57;;;6.25;;
12218;SDS011;6172;42.646;23.344;2022-08-19T02:55:32;8.32;;;5.90;;
12218;SDS011;6172;42.646;23.344;2022-08-19T02:57:59;6.53;;;5.97;;
12218;SDS011;6172;42.646;23.344;2022-08-19T03:00:26;6.88;;;5.43;;
12218;SDS011;6172;42.646;23.344;2022-08-19T03:02:55;9.02;;;5.47;;
12218;SDS011;6172;42.646;23.344;2022-08-19T03:05:22;5.88;;;5.40;;
12218;SDS011;6172;42.646;23.344;2022-08-19T03:07:48;5.82;;;5.32;;
12218;SDS011;6172;42.646;23.344;2022-08-19T03:10:16;6.93;;;6.22;;
12218;SDS011;6172;42.646;23.344;2022-08-19T03:12:43;5.95;;;5.35;;
12218;SDS011;6172;42.646;23.344;2022-08-19T03:15:11;5.95;;;5.45;;
12218;SDS011;6172;42.646;23.344;2022-08-19T03:17:38;6.93;;;5.82;;
12218;SDS011;6172;42.646;23.344;2022-08-19T03:20:07;8.30;;;5.25;;
12218;SDS011;6172;42.646;23.344;2022-08-19T03:22:34;6.22;;;5.28;;
12218;SDS011;6172;42.646;23.344;2022-08-19T03:25:01;5.95;;;5.35;;
12218;SDS011;6172;42.646;23.344;2022-08-19T03:27:29;6.13;;;5.30;;
12218;SDS011;6172;42.646;23.344;2022-08-19T03:29:56;6.22;;;5.28;;
12218;SDS011;6172;42.646;23.344;2022-08-19T03:32:22;6.38;;;5.88;;
12218;SDS011;6172;42.646;23.344;2022-08-19T03:34:49;6.63;;;6.03;;
12218;SDS011;6172;42.646;23.344;2022-08-19T03:37:18;12.48;;;6.80;;
12218;SDS011;6172;42.646;23.344;2022-08-19T03:39:45;7.78;;;6.43;;
12218;SDS011;6172;42.646;23.344;2022-08-19T03:42:12;7.25;;;5.82;;
12218;SDS011;6172;42.646;23.344;2022-08-19T03:44:40;8.88;;;5.57;;
12218;SDS011;6172;42.646;23.344;2022-08-19T03:47:09;10.80;;;7.13;;
12218;SDS011;6172;42.646;23.344;2022-08-19T03:49:41;10.10;;;7.05;;
12218;SDS011;6172;42.646;23.344;2022-08-19T03:52:09;10.25;;;6.63;;
12218;SDS011;6172;42.646;23.344;2022-08-19T03:54:37;8.57;;;6.55;;
12218;SDS011;6172;42.646;23.344;2022-08-19T03:57:04;19.52;;;7.00;;
12218;SDS011;6172;42.646;23.344;2022-08-19T03:59:33;10.52;;;7.53;;
12218;SDS011;6172;42.646;23.344;2022-08-19T04:02:06;9.50;;;6.72;;
12218;SDS011;6172;42.646;23.344;2022-08-19T04:04:35;6.90;;;6.30;;
12218;SDS011;6172;42.646;23.344;2022-08-19T04:07:03;11.70;;;6.80;;
12218;SDS011;6172;42.646;23.344;2022-08-19T04:09:30;9.50;;;6.15;;
12218;SDS011;6172;42.646;23.344;2022-08-19T04:11:58;10.25;;;6.30;;
12218;SDS011;6172;42.646;23.344;2022-08-19T04:14:26;10.15;;;6.20;;
12218;SDS011;6172;42.646;23.344;2022-08-19T04:16:55;14.90;;;6.60;;
12218;SDS011;6172;42.646;23.344;2022-08-19T04:19:23;8.82;;;5.97;;
12218;SDS011;6172;42.646;23.344;2022-08-19T04:21:53;9.57;;;6.07;;
12218;SDS011;6172;42.646;23.344;2022-08-19T04:24:21;13.77;;;6.93;;
12218;SDS011;6172;42.646;23.344;2022-08-19T04:26:48;14.48;;;7.15;;
12218;SDS011;6172;42.646;23.344;2022-08-19T04:29:18;9.77;;;6.45;;
12218;SDS011;6172;42.646;23.344;2022-08-19T04:31:50;12.77;;;6.57;;
12218;SDS011;6172;42.646;23.344;2022-08-19T04:34:19;12.82;;;6.53;;
12218;SDS011;6172;42.646;23.344;2022-08-19T04:36:48;12.43;;;6.47;;
12218;SDS011;6172;42.646;23.344;2022-08-19T04:39:18;11.70;;;6.00;;
12218;SDS011;6172;42.646;23.344;2022-08-19T04:41:46;8.80;;;6.80;;
12218;SDS011;6172;42.646;23.344;2022-08-19T04:44:32;8.38;;;6.43;;
12218;SDS011;6172;42.646;23.344;2022-08-19T04:47:01;12.73;;;7.85;;
12218;SDS011;6172;42.646;23.344;2022-08-19T04:49:30;11.52;;;7.03;;
12218;SDS011;6172;42.646;23.344;2022-08-19T04:51:58;10.27;;;6.68;;
12218;SDS011;6172;42.646;23.344;2022-08-19T04:54:26;10.05;;;6.20;;
12218;SDS011;6172;42.646;23.344;2022-08-19T04:56:53;15.45;;;7.45;;
12218;SDS011;6172;42.646;23.344;2022-08-19T04:59:21;10.90;;;7.28;;
12218;SDS011;6172;42.646;23.344;2022-08-19T05:01:49;9.63;;;6.72;;
12218;SDS011;6172;42.646;23.344;2022-08-19T05:04:17;10.70;;;6.75;;
12218;SDS011;6172;42.646;23.344;2022-08-19T05:06:45;9.60;;;6.90;;
12218;SDS011;6172;42.646;23.344;2022-08-19T05:09:13;9.48;;;7.13;;
12218;SDS011;6172;42.646;23.344;2022-08-19T05:11:41;10.30;;;7.97;;
12218;SDS011;6172;42.646;23.344;2022-08-19T05:14:09;11.00;;;7.60;;
12218;SDS011;6172;42.646;23.344;2022-08-19T05:16:37;10.85;;;7.53;;
12218;SDS011;6172;42.646;23.344;2022-08-19T05:19:06;9.52;;;6.97;;
12218;SDS011;6172;42.646;23.344;2022-08-19T05:21:50;9.57;;;7.25;;
12218;SDS011;6172;42.646;23.344;2022-08-19T05:24:35;12.55;;;7.75;;
12218;SDS011;6172;42.646;23.344;2022-08-19T05:27:02;10.05;;;6.80;;
12218;SDS011;6172;42.646;23.344;2022-08-19T05:29:31;9.13;;;6.20;;
12218;SDS011;6172;42.646;23.344;2022-08-19T05:32:01;10.45;;;6.63;;
12218;SDS011;6172;42.646;23.344;2022-08-19T05:34:31;12.45;;;6.30;;
12218;SDS011;6172;42.646;23.344;2022-08-19T05:36:58;13.05;;;6.78;;
12218;SDS011;6172;42.646;23.344;2022-08-19T05:39:30;9.98;;;6.32;;
12218;SDS011;6172;42.646;23.344;2022-08-19T05:42:00;7.97;;;5.78;;
12218;SDS011;6172;42.646;23.344;2022-08-19T05:44:29;9.52;;;6.78;;
12218;SDS011;6172;42.646;23.344;2022-08-19T05:46:58;6.95;;;5.95;;
12218;SDS011;6172;42.646;23.344;2022-08-19T05:49:26;10.60;;;5.90;;
12218;SDS011;6172;42.646;23.344;2022-08-19T05:51:55;10.65;;;6.63;;
12218;SDS011;6172;42.646;23.344;2022-08-19T05:54:24;7.20;;;6.32;;
12218;SDS011;6172;42.646;23.344;2022-08-19T05:56:52;9.00;;;6.47;;
12218;SDS011;6172;42.646;23.344;2022-08-19T05:59:21;11.77;;;6.60;;
12218;SDS011;6172;42.646;23.344;2022-08-19T06:01:49;13.33;;;7.70;;
12218;SDS011;6172;42.646;23.344;2022-08-19T06:04:17;13.73;;;6.90;;
12218;SDS011;6172;42.646;23.344;2022-08-19T06:06:45;6.82;;;6.15;;
12218;SDS011;6172;42.646;23.344;2022-08-19T06:09:15;6.50;;;5.85;;
12218;SDS011;6172;42.646;23.344;2022-08-19T06:11:45;7.47;;;6.20;;
12218;SDS011;6172;42.646;23.344;2022-08-19T06:14:14;9.18;;;6.40;;
12218;SDS011;6172;42.646;23.344;2022-08-19T06:16:47;9.32;;;7.15;;
12218;SDS011;6172;42.646;23.344;2022-08-19T06:19:18;8.27;;;5.75;;
12218;SDS011;6172;42.646;23.344;2022-08-19T06:21:48;7.88;;;6.00;;
12218;SDS011;6172;42.646;23.344;2022-08-19T06:24:20;7.00;;;5.47;;
12218;SDS011;6172;42.646;23.344;2022-08-19T06:26:51;8.23;;;5.38;;
12218;SDS011;6172;42.646;23.344;2022-08-19T06:29:20;8.20;;;5.50;;
12218;SDS011;6172;42.646;23.344;2022-08-19T06:31:50;6.18;;;5.03;;
12218;SDS011;6172;42.646;23.344;2022-08-19T06:34:19;9.48;;;6.30;;
12218;SDS011;6172;42.646;23.344;2022-08-19T06:36:48;12.63;;;6.25;;
12218;SDS011;6172;42.646;23.344;2022-08-19T06:39:19;12.00;;;6.40;;
12218;SDS011;6172;42.646;23.344;2022-08-19T06:41:50;6.00;;;5.40;;
12218;SDS011;6172;42.646;23.344;2022-08-19T06:44:23;8.88;;;5.75;;
12218;SDS011;6172;42.646;23.344;2022-08-19T06:46:53;6.95;;;5.00;;
12218;SDS011;6172;42.646;23.344;2022-08-19T06:49:21;7.53;;;5.15;;
12218;SDS011;6172;42.646;23.344;2022-08-19T06:51:48;10.02;;;6.35;;
12218;SDS011;6172;42.646;23.344;2022-08-19T06:54:18;8.13;;;6.35;;
12218;SDS011;6172;42.646;23.344;2022-08-19T06:56:45;6.43;;;5.80;;
12218;SDS011;6172;42.646;23.344;2022-08-19T06:59:13;7.60;;;5.55;;
12218;SDS011;6172;42.646;23.344;2022-08-19T07:01:43;7.30;;;5.57;;
12218;SDS011;6172;42.646;23.344;2022-08-19T07:04:13;7.93;;;4.93;;
12218;SDS011;6172;42.646;23.344;2022-08-19T07:06:43;6.50;;;4.68;;
12218;SDS011;6172;42.646;23.344;2022-08-19T07:09:11;6.07;;;4.63;;
12218;SDS011;6172;42.646;23.344;2022-08-19T07:11:44;5.28;;;4.78;;
12218;SDS011;6172;42.646;23.344;2022-08-19T07:14:12;6.80;;;4.78;;
12218;SDS011;6172;42.646;23.344;2022-08-19T07:16:42;5.75;;;5.18;;
12218;SDS011;6172;42.646;23.344;2022-08-19T07:19:10;6.18;;;5.00;;
12218;SDS011;6172;42.646;23.344;2022-08-19T07:21:37;6.75;;;5.07;;
12218;SDS011;6172;42.646;23.344;2022-08-19T07:24:04;8.60;;;6.15;;
12218;SDS011;6172;42.646;23.344;2022-08-19T07:26:40;6.53;;;4.68;;
12218;SDS011;6172;42.646;23.344;2022-08-19T07:29:10;7.97;;;5.50;;
12218;SDS011;6172;42.646;23.344;2022-08-19T07:31:38;9.52;;;5.85;;
12218;SDS011;6172;42.646;23.344;2022-08-19T07:34:06;7.82;;;5.43;;
12218;SDS011;6172;42.646;23.344;2022-08-19T07:36:36;12.02;;;5.40;;
12218;SDS011;6172;42.646;23.344;2022-08-19T07:39:06;6.65;;;5.35;;
12218;SDS011;6172;42.646;23.344;2022-08-19T07:41:36;7.38;;;5.90;;
12218;SDS011;6172;42.646;23.344;2022-08-19T07:44:04;6.80;;;4.93;;
12218;SDS011;6172;42.646;23.344;2022-08-19T07:46:35;6.75;;;4.97;;
12218;SDS011;6172;42.646;23.344;2022-08-19T07:49:06;8.35;;;5.13;;
12218;SDS011;6172;42.646;23.344;2022-08-19T07:51:33;8.45;;;4.97;;
12218;SDS011;6172;42.646;23.344;2022-08-19T07:54:01;5.07;;;4.68;;
12218;SDS011;6172;42.646;23.344;2022-08-19T07:56:29;7.28;;;5.63;;
12218;SDS011;6172;42.646;23.344;2022-08-19T07:58:56;7.97;;;4.85;;
12218;SDS011;6172;42.646;23.344;2022-08-19T08:01:24;7.90;;;4.88;;
12218;SDS011;6172;42.646;23.344;2022-08-19T08:03:55;6.63;;;4.93;;
12218;SDS011;6172;42.646;23.344;2022-08-19T08:06:40;10.18;;;5.70;;
12218;SDS011;6172;42.646;23.344;2022-08-19T08:09:25;6.57;;;5.28;;
12218;SDS011;6172;42.646;23.344;2022-08-19T08:11:55;9.02;;;5.60;;
12218;SDS011;6172;42.646;23.344;2022-08-19T08:14:24;13.13;;;5.85;;
12218;SDS011;6172;42.646;23.344;2022-08-19T08:16:54;6.45;;;5.85;;
12218;SDS011;6172;42.646;23.344;2022-08-19T08:19:23;6.18;;;5.55;;
12218;SDS011;6172;42.646;23.344;2022-08-19T08:21:53;8.05;;;5.60;;
12218;SDS011;6172;42.646;23.344;2022-08-19T08:24:21;7.55;;;5.35;;
12218;SDS011;6172;42.646;23.344;2022-08-19T08:26:49;8.00;;;5.68;;
12218;SDS011;6172;42.646;23.344;2022-08-19T08:29:16;7.78;;;5.50;;
12218;SDS011;6172;42.646;23.344;2022-08-19T08:31:44;12.70;;;5.85;;
12218;SDS011;6172;42.646;23.344;2022-08-19T08:34:12;6.75;;;5.35;;
12218;SDS011;6172;42.646;23.344;2022-08-19T08:36:42;7.95;;;5.10;;
12218;SDS011;6172;42.646;23.344;2022-08-19T08:39:11;6.72;;;5.05;;
12218;SDS011;6172;42.646;23.344;2022-08-19T08:41:42;7.13;;;4.97;;
12218;SDS011;6172;42.646;23.344;2022-08-19T08:44:19;7.25;;;4.65;;
12218;SDS011;6172;42.646;23.344;2022-08-19T08:46:50;10.40;;;4.50;;
12218;SDS011;6172;42.646;23.344;2022-08-19T08:49:26;6.45;;;4.10;;
12218;SDS011;6172;42.646;23.344;2022-08-19T08:52:03;6.93;;;4.25;;
12218;SDS011;6172;42.646;23.344;2022-08-19T08:54:33;3.97;;;3.60;;
12218;SDS011;6172;42.646;23.344;2022-08-19T08:57:04;5.63;;;3.85;;
12218;SDS011;6172;42.646;23.344;2022-08-19T08:59:48;4.50;;;3.70;;
12218;SDS011;6172;42.646;23.344;2022-08-19T09:02:17;7.57;;;3.80;;
12218;SDS011;6172;42.646;23.344;2022-08-19T09:04:44;10.07;;;5.15;;
12218;SDS011;6172;42.646;23.344;2022-08-19T09:07:19;9.52;;;4.18;;
12218;SDS011;6172;42.646;23.344;2022-08-19T09:09:56;6.07;;;4.32;;
12218;SDS011;6172;42.646;23.344;2022-08-19T09:12:31;8.52;;;4.57;;
12218;SDS011;6172;42.646;23.344;2022-08-19T09:15:06;8.65;;;3.72;;
12218;SDS011;6172;42.646;23.344;2022-08-19T09:17:35;4.88;;;3.90;;
12218;SDS011;6172;42.646;23.344;2022-08-19T09:20:04;6.38;;;3.40;;
12218;SDS011;6172;42.646;23.344;2022-08-19T09:22:41;4.13;;;3.00;;
12218;SDS011;6172;42.646;23.344;2022-08-19T09:25:10;4.57;;;3.75;;
12218;SDS011;6172;42.646;23.344;2022-08-19T09:27:41;2.85;;;2.65;;
12218;SDS011;6172;42.646;23.344;2022-08-19T09:30:12;2.70;;;2.50;;
12218;SDS011;6172;42.646;23.344;2022-08-19T09:32:41;4.53;;;3.00;;
12218;SDS011;6172;42.646;23.344;2022-08-19T09:35:08;5.35;;;3.15;;
12218;SDS011;6172;42.646;23.344;2022-08-19T09:37:36;5.05;;;3.40;;
12218;SDS011;6172;42.646;23.344;2022-08-19T09:40:06;3.38;;;3.17;;
12218;SDS011;6172;42.646;23.344;2022-08-19T09:42:33;4.13;;;3.20;;
12218;SDS011;6172;42.646;23.344;2022-08-19T09:45:00;3.40;;;3.03;;
12218;SDS011;6172;42.646;23.344;2022-08-19T09:47:28;4.55;;;2.88;;
12218;SDS011;6172;42.646;23.344;2022-08-19T09:49:55;5.00;;;3.65;;
12218;SDS011;6172;42.646;23.344;2022-08-19T09:52:24;4.25;;;3.10;;
12218;SDS011;6172;42.646;23.344;2022-08-19T09:54:51;5.43;;;3.40;;
12218;SDS011;6172;42.646;23.344;2022-08-19T09:57:20;3.88;;;3.03;;
12218;SDS011;6172;42.646;23.344;2022-08-19T09:59:47;3.33;;;2.72;;
12218;SDS011;6172;42.646;23.344;2022-08-19T10:02:14;3.97;;;3.08;;
12218;SDS011;6172;42.646;23.344;2022-08-19T10:04:41;2.55;;;2.45;;
12218;SDS011;6172;42.646;23.344;2022-08-19T10:07:25;3.88;;;3.33;;
12218;SDS011;6172;42.646;23.344;2022-08-19T10:09:52;6.32;;;3.25;;
12218;SDS011;6172;42.646;23.344;2022-08-19T10:12:21;5.15;;;3.30;;
12218;SDS011;6172;42.646;23.344;2022-08-19T10:14:48;10.85;;;3.88;;
12218;SDS011;6172;42.646;23.344;2022-08-19T10:17:16;3.28;;;2.97;;
12218;SDS011;6172;42.646;23.344;2022-08-19T10:19:43;4.25;;;3.17;;
12218;SDS011;6172;42.646;23.344;2022-08-19T10:22:12;4.07;;;3.42;;
12218;SDS011;6172;42.646;23.344;2022-08-19T10:24:40;4.22;;;3.10;;
12218;SDS011;6172;42.646;23.344;2022-08-19T10:27:07;3.83;;;3.50;;
12218;SDS011;6172;42.646;23.344;2022-08-19T10:29:36;6.97;;;3.13;;
12218;SDS011;6172;42.646;23.344;2022-08-19T10:32:03;4.20;;;3.03;;
12218;SDS011;6172;42.646;23.344;2022-08-19T10:34:33;3.83;;;2.70;;
12218;SDS011;6172;42.646;23.344;2022-08-19T10:37:02;3.08;;;2.80;;
12218;SDS011;6172;42.646;23.344;2022-08-19T10:39:30;3.78;;;3.47;;
12218;SDS011;6172;42.646;23.344;2022-08-19T10:41:58;3.95;;;3.05;;
12218;SDS011;6172;42.646;23.344;2022-08-19T10:44:25;5.63;;;3.22;;
12218;SDS011;6172;42.646;23.344;2022-08-19T10:46:56;5.40;;;3.33;;
12218;SDS011;6172;42.646;23.344;2022-08-19T10:49:23;3.30;;;3.00;;
12218;SDS011;6172;42.646;23.344;2022-08-19T10:51:50;4.22;;;3.17;;
12218;SDS011;6172;42.646;23.344;2022-08-19T10:54:49;3.00;;;2.80;;
12218;SDS011;6172;42.646;23.344;2022-08-19T10:57:35;7.18;;;3.45;;
12218;SDS011;6172;42.646;23.344;2022-08-19T11:00:03;4.95;;;3.65;;
12218;SDS011;6172;42.646;23.344;2022-08-19T11:02:32;3.90;;;3.00;;
12218;SDS011;6172;42.646;23.344;2022-08-19T11:04:59;3.78;;;2.90;;
12218;SDS011;6172;42.646;23.344;2022-08-19T11:07:26;12.15;;;3.60;;
12218;SDS011;6172;42.646;23.344;2022-08-19T11:09:53;3.95;;;2.90;;
12218;SDS011;6172;42.646;23.344;2022-08-19T11:12:20;8.27;;;3.58;;
12218;SDS011;6172;42.646;23.344;2022-08-19T11:14:48;3.78;;;3.47;;
12218;SDS011;6172;42.646;23.344;2022-08-19T11:17:15;3.45;;;3.15;;
12218;SDS011;6172;42.646;23.344;2022-08-19T11:19:44;3.88;;;3.53;;
12218;SDS011;6172;42.646;23.344;2022-08-19T11:22:13;4.22;;;3.10;;
12218;SDS011;6172;42.646;23.344;2022-08-19T11:24:40;7.43;;;3.83;;
12218;SDS011;6172;42.646;23.344;2022-08-19T11:27:07;5.93;;;3.53;;
12218;SDS011;6172;42.646;23.344;2022-08-19T11:29:37;8.73;;;4.00;;
12218;SDS011;6172;42.646;23.344;2022-08-19T11:32:05;3.40;;;3.20;;
12218;SDS011;6172;42.646;23.344;2022-08-19T11:34:34;4.28;;;3.83;;
12218;SDS011;6172;42.646;23.344;2022-08-19T11:37:03;5.80;;;3.60;;
12218;SDS011;6172;42.646;23.344;2022-08-19T11:39:31;4.63;;;4.18;;
12218;SDS011;6172;42.646;23.344;2022-08-19T11:42:02;5.20;;;4.13;;
12218;SDS011;6172;42.646;23.344;2022-08-19T11:44:49;4.30;;;3.70;;
12218;SDS011;6172;42.646;23.344;2022-08-19T11:47:16;3.92;;;3.40;;
12218;SDS011;6172;42.646;23.344;2022-08-19T11:49:44;9.05;;;3.97;;
12218;SDS011;6172;42.646;23.344;2022-08-19T11:52:13;5.38;;;3.85;;
12218;SDS011;6172;42.646;23.344;2022-08-19T11:54:40;8.05;;;3.97;;
12218;SDS011;6172;42.646;23.344;2022-08-19T11:57:07;6.40;;;3.63;;
12218;SDS011;6172;42.646;23.344;2022-08-19T11:59:34;3.90;;;3.58;;
12218;SDS011;6172;42.646;23.344;2022-08-19T12:02:01;4.65;;;4.07;;
12218;SDS011;6172;42.646;23.344;2022-08-19T12:04:28;4.53;;;4.00;;
12218;SDS011;6172;42.646;23.344;2022-08-19T12:06:55;4.78;;;4.07;;
12218;SDS011;6172;42.646;23.344;2022-08-19T12:09:23;4.10;;;3.70;;
12218;SDS011;6172;42.646;23.344;2022-08-19T12:11:50;6.13;;;3.40;;
12218;SDS011;6172;42.646;23.344;2022-08-19T12:14:17;3.30;;;3.00;;
12218;SDS011;6172;42.646;23.344;2022-08-19T12:16:45;5.60;;;3.70;;
12218;SDS011;6172;42.646;23.344;2022-08-19T12:19:12;5.40;;;3.50;;
12218;SDS011;6172;42.646;23.344;2022-08-19T12:21:40;4.20;;;3.80;;
12218;SDS011;6172;42.646;23.344;2022-08-19T12:24:07;4.82;;;3.60;;
12218;SDS011;6172;42.646;23.344;2022-08-19T12:26:36;5.53;;;3.80;;
12218;SDS011;6172;42.646;23.344;2022-08-19T12:29:03;4.07;;;3.70;;
12218;SDS011;6172;42.646;23.344;2022-08-19T12:31:30;5.85;;;4.13;;
12218;SDS011;6172;42.646;23.344;2022-08-19T12:33:57;3.83;;;3.53;;
12218;SDS011;6172;42.646;23.344;2022-08-19T12:36:27;4.53;;;3.72;;
12218;SDS011;6172;42.646;23.344;2022-08-19T12:38:54;3.80;;;3.45;;
12218;SDS011;6172;42.646;23.344;2022-08-19T12:41:23;5.57;;;3.90;;
12218;SDS011;6172;42.646;23.344;2022-08-19T12:43:52;4.65;;;4.05;;
12218;SDS011;6172;42.646;23.344;2022-08-19T12:46:19;4.20;;;3.80;;
12218;SDS011;6172;42.646;23.344;2022-08-19T12:48:46;4.05;;;3.70;;
12218;SDS011;6172;42.646;23.344;2022-08-19T12:51:14;4.43;;;3.97;;
12218;SDS011;6172;42.646;23.344;2022-08-19T12:53:44;6.65;;;4.22;;
12218;SDS011;6172;42.646;23.344;2022-08-19T12:56:12;3.92;;;3.42;;
12218;SDS011;6172;42.646;23.344;2022-08-19T12:58:40;4.25;;;3.72;;
12218;SDS011;6172;42.646;23.344;2022-08-19T13:01:10;5.60;;;3.83;;
12218;SDS011;6172;42.646;23.344;2022-08-19T13:03:38;7.15;;;4.25;;
12218;SDS011;6172;42.646;23.344;2022-08-19T13:06:08;11.45;;;4.43;;
12218;SDS011;6172;42.646;23.344;2022-08-19T13:08:35;3.80;;;3.50;;
12218;SDS011;6172;42.646;23.344;2022-08-19T13:11:06;3.72;;;3.50;;
12218;SDS011;6172;42.646;23.344;2022-08-19T13:13:36;5.25;;;4.43;;
12218;SDS011;6172;42.646;23.344;2022-08-19T13:16:06;7.05;;;3.45;;
12218;SDS011;6172;42.646;23.344;2022-08-19T13:18:36;6.47;;;3.85;;
12218;SDS011;6172;42.646;23.344;2022-08-19T13:21:04;5.38;;;4.38;;
12218;SDS011;6172;42.646;23.344;2022-08-19T13:23:32;4.00;;;3.70;;
12218;SDS011;6172;42.646;23.344;2022-08-19T13:26:01;4.95;;;4.53;;
12218;SDS011;6172;42.646;23.344;2022-08-19T13:28:30;6.90;;;4.28;;
12218;SDS011;6172;42.646;23.344;2022-08-19T13:31:19;5.03;;;3.92;;
12218;SDS011;6172;42.646;23.344;2022-08-19T13:34:05;4.88;;;3.30;;
12218;SDS011;6172;42.646;23.344;2022-08-19T13:36:33;5.18;;;4.20;;
12218;SDS011;6172;42.646;23.344;2022-08-19T13:39:00;4.63;;;4.22;;
12218;SDS011;6172;42.646;23.344;2022-08-19T13:41:27;4.18;;;3.70;;
12218;SDS011;6172;42.646;23.344;2022-08-19T13:43:54;5.78;;;3.63;;
12218;SDS011;6172;42.646;23.344;2022-08-19T13:46:22;5.43;;;3.78;;
12218;SDS011;6172;42.646;23.344;2022-08-19T13:48:49;5.50;;;3.63;;
12218;SDS011;6172;42.646;23.344;2022-08-19T13:51:16;4.22;;;3.92;;
12218;SDS011;6172;42.646;23.344;2022-08-19T13:53:44;6.60;;;3.97;;
12218;SDS011;6172;42.646;23.344;2022-08-19T13:56:11;4.95;;;3.97;;
12218;SDS011;6172;42.646;23.344;2022-08-19T13:58:40;4.35;;;3.85;;
12218;SDS011;6172;42.646;23.344;2022-08-19T14:01:07;7.72;;;4.07;;
12218;SDS011;6172;42.646;23.344;2022-08-19T14:03:37;4.75;;;4.30;;
12218;SDS011;6172;42.646;23.344;2022-08-19T14:06:05;4.40;;;4.00;;
12218;SDS011;6172;42.646;23.344;2022-08-19T14:08:32;4.53;;;4.05;;
12218;SDS011;6172;42.646;23.344;2022-08-19T14:10:58;4.40;;;4.00;;
12218;SDS011;6172;42.646;23.344;2022-08-19T14:13:25;5.68;;;4.18;;
12218;SDS011;6172;42.646;23.344;2022-08-19T14:15:52;6.00;;;4.00;;
12218;SDS011;6172;42.646;23.344;2022-08-19T14:18:19;6.32;;;3.97;;
12218;SDS011;6172;42.646;23.344;2022-08-19T14:20:48;5.50;;;3.70;;
12218;SDS011;6172;42.646;23.344;2022-08-19T14:23:15;7.05;;;4.22;;
12218;SDS011;6172;42.646;23.344;2022-08-19T14:25:42;5.70;;;4.60;;
12218;SDS011;6172;42.646;23.344;2022-08-19T14:28:10;4.07;;;3.67;;
12218;SDS011;6172;42.646;23.344;2022-08-19T14:30:37;5.25;;;4.50;;
12218;SDS011;6172;42.646;23.344;2022-08-19T14:33:05;4.38;;;4.05;;
12218;SDS011;6172;42.646;23.344;2022-08-19T14:35:33;5.72;;;4.43;;
12218;SDS011;6172;42.646;23.344;2022-08-19T14:38:02;4.97;;;4.45;;
12218;SDS011;6172;42.646;23.344;2022-08-19T14:40:30;4.70;;;4.30;;
12218;SDS011;6172;42.646;23.344;2022-08-19T14:42:58;4.18;;;3.60;;
12218;SDS011;6172;42.646;23.344;2022-08-19T14:45:29;4.47;;;4.07;;
12218;SDS011;6172;42.646;23.344;2022-08-19T14:47:57;4.43;;;4.03;;
12218;SDS011;6172;42.646;23.344;2022-08-19T14:50:25;3.67;;;3.38;;
12218;SDS011;6172;42.646;23.344;2022-08-19T14:52:57;7.00;;;4.13;;
12218;SDS011;6172;42.646;23.344;2022-08-19T14:55:26;5.40;;;3.80;;
12218;SDS011;6172;42.646;23.344;2022-08-19T14:57:53;4.47;;;4.07;;